Terminal Aerodrome Forecast
Issued by NWS

Home | Current Version | Previous Version | Text Only | Print | Product List | Glossary On
Versions: 1 2 3 4 5 6 7 8 9 10 11 12 13 14 15 16
000
FTUS46 KLOX 301739
TAFLGB
TAF
KLGB 301739Z 3018/3118 VRB03KT 2SM HZ BKN010
     FM301900 18008KT 4SM HZ BKN250
     FM302000 21008KT 6SM HZ BKN250
     FM310100 29008KT P6SM SKC
     FM310500 VRB03KT P6SM SKC
     FM310700 VRB03KT 5SM BR OVC007
     FM311000 VRB03KT 2SM BR OVC004
     FM311300 VRB03KT 4SM BR OVC006=

USA.gov is the U.S. government's official web portal to all federal, state and local government web resources and services.